Time;durP1;ratioP1;P1;durP2;ratioP2;P2;SDS_P1;SDS_P2;PMS_P1;PMS_P2;Temp;Humidity;BMP_temperature;BMP_pressure;BME280_temperature;BME280_humidity;BME280_pressure;Samples;Min_cycle;Max_cycle;Signal;HPM_P1;HPM_P2
2023/11/04 00:00:35;;;;;;;;;;;;;;;6.60;73.65;97712.00;1088150;54;895;-77
2023/11/04 00:01:35;;;;;;;;;;;;;;;6.59;73.56;97708.53;1088179;47;961;-77
2023/11/04 00:02:38;;;;;;;;;;;;;;;6.60;73.70;97709.34;1088043;47;943;-78
2023/11/04 00:03:39;;;;;;;;;;;;;;;6.58;73.58;97706.88;1088143;54;1165;-78
2023/11/04 00:04:43;;;;;;;;;;;;;;;6.56;73.57;97716.84;1088142;47;940;-78
2023/11/04 00:05:45;;;;;;;;;;;;;;;6.54;73.89;97711.72;1088161;47;1037;-77
2023/11/04 00:06:49;;;;;;;;;;;;;;;6.58;73.79;97714.00;1088220;54;1042;-77
2023/11/04 00:07:51;;;;;;;;;;;;;;;6.55;73.54;97712.53;1088142;54;1388;-77
2023/11/04 00:08:56;;;;;;;;;;;;;;;6.49;73.85;97722.03;1088083;46;887;-78
2023/11/04 00:09:57;;;;;;;;;;;;;;;6.47;73.81;97725.88;1088112;54;885;-77
2023/11/04 00:11:00;;;;;;;;;;;;;;;6.43;73.73;97713.94;1088069;47;968;-77
2023/11/04 00:12:01;;;;;;;;;;;;;;;6.40;73.98;97713.31;1088009;47;963;-78
2023/11/04 00:13:06;;;;;;;;;;;;;;;6.39;73.84;97714.31;1088038;47;952;-77
2023/11/04 00:14:06;;;;;;;;;;;;;;;6.40;73.65;97715.13;1088137;47;1510;-77
2023/11/04 00:15:07;;;;;;;;;;;;;;;6.42;73.95;97714.97;1088053;47;1059;-77
2023/11/04 00:16:12;;;;;;;;;;;;;;;6.42;73.85;97722.94;1088106;47;1079;-78
2023/11/04 00:17:13;;;;;;;;;;;;;;;6.44;73.56;97712.94;1088206;54;960;-78
2023/11/04 00:18:16;;;;;;;;;;;;;;;6.42;73.48;97715.78;1088033;54;1311;-78
2023/11/04 00:19:18;;;;;;;;;;;;;;;6.47;73.40;97709.94;1088173;47;1207;-78
2023/11/04 00:20:21;;;;;;;;;;;;;;;6.45;73.23;97715.44;1088163;47;1063;-78
2023/11/04 00:21:22;;;;;;;;;;;;;;;6.45;73.65;97712.78;1088083;54;1065;-78
2023/11/04 00:22:25;;;;;;;;;;;;;;;6.47;73.19;97713.41;1088112;47;1087;-78
2023/11/04 00:23:26;;;;;;;;;;;;;;;6.46;73.31;97718.91;1088100;47;940;-78
2023/11/04 00:24:32;;;;;;;;;;;;;;;6.44;73.35;97720.91;1088048;47;964;-78
2023/11/04 00:25:32;;;;;;;;;;;;;;;6.46;73.30;97713.59;1088049;47;1106;-77
2023/11/04 00:26:35;;;;;;;;;;;;;;;6.48;73.14;97720.38;1088132;47;919;-78
2023/11/04 00:27:37;;;;;;;;;;;;;;;6.49;73.43;97713.25;1088101;54;989;-78
2023/11/04 00:28:40;;;;;;;;;;;;;;;6.48;73.09;97716.91;1087987;47;1277;-78
2023/11/04 00:29:41;;;;;;;;;;;;;;;6.50;72.98;97714.91;1088144;54;1090;-78
2023/11/04 00:30:42;;;;;;;;;;;;;;;6.48;73.22;97719.56;1088059;54;1124;-77
2023/11/04 00:31:46;;;;;;;;;;;;;;;6.50;72.96;97713.06;1088042;47;1852;-78
2023/11/04 00:32:47;;;;;;;;;;;;;;;6.51;73.10;97724.53;1088197;54;981;-77
2023/11/04 00:33:51;;;;;;;;;;;;;;;6.50;73.06;97718.38;1088001;54;965;-77
2023/11/04 00:34:51;;;;;;;;;;;;;;;6.49;72.93;97724.69;1088092;54;1018;-78
2023/11/04 00:35:55;;;;;;;;;;;;;;;6.53;72.80;97727.81;1088125;47;892;-78
2023/11/04 00:36:55;;;;;;;;;;;;;;;6.52;72.98;97723.50;1087907;47;1414;-77
2023/11/04 00:37:59;;;;;;;;;;;;;;;6.54;73.10;97724.16;1087985;47;1289;-77
2023/11/04 00:39:00;;;;;;;;;;;;;;;6.47;72.94;97725.88;1088051;54;1126;-78
2023/11/04 00:40:08;;;;;;;;;;;;;;;6.46;73.23;97733.03;1088106;47;1036;-78
2023/11/04 00:41:08;;;;;;;;;;;;;;;6.46;73.09;97737.47;1088189;47;931;-76
2023/11/04 00:42:09;;;;;;;;;;;;;;;6.43;73.18;97733.34;1087962;54;955;-78
2023/11/04 00:43:12;;;;;;;;;;;;;;;6.45;73.29;97733.19;1088110;54;916;-78
2023/11/04 00:44:14;;;;;;;;;;;;;;;6.40;73.38;97742.50;1087810;47;1014;-77
2023/11/04 00:45:17;;;;;;;;;;;;;;;6.46;73.14;97737.47;1087963;54;962;-77
2023/11/04 00:46:18;;;;;;;;;;;;;;;6.42;73.52;97737.00;1087953;47;1041;-78
2023/11/04 00:47:21;;;;;;;;;;;;;;;6.42;73.50;97737.00;1087893;47;1140;-78
2023/11/04 00:48:22;;;;;;;;;;;;;;;6.45;73.26;97743.78;1087955;54;1320;-76
2023/11/04 00:49:22;;;;;;;;;;;;;;;6.44;73.45;97747.44;1088146;47;1079;-77
2023/11/04 00:50:26;;;;;;;;;;;;;;;6.44;73.26;97744.78;1087937;47;1260;-76
2023/11/04 00:51:27;;;;;;;;;;;;;;;6.44;73.24;97742.13;1088009;54;1871;-76
2023/11/04 00:52:30;;;;;;;;;;;;;;;6.42;73.17;97750.28;1087980;47;966;-76
2023/11/04 00:53:31;;;;;;;;;;;;;;;6.48;73.40;97735.50;1088014;54;967;-76
2023/11/04 00:54:34;;;;;;;;;;;;;;;6.42;73.59;97738.84;1088036;54;890;-76
2023/11/04 00:55:37;;;;;;;;;;;;;;;6.38;73.44;97741.84;1088059;54;1008;-76
2023/11/04 00:56:41;;;;;;;;;;;;;;;6.36;73.28;97743.84;1088057;54;912;-76
2023/11/04 00:57:41;;;;;;;;;;;;;;;6.40;73.25;97745.16;1087995;47;1268;-76
2023/11/04 00:58:42;;;;;;;;;;;;;;;6.46;73.38;97742.78;1088018;47;985;-77
2023/11/04 00:59:45;;;;;;;;;;;;;;;6.46;73.30;97748.09;1087927;47;932;-77
2023/11/04 01:00:46;;;;;;;;;;;;;;;6.43;73.40;97748.44;1087861;47;1007;-78
2023/11/04 01:01:49;;;;;;;;;;;;;;;6.45;73.11;97741.13;1088290;54;972;-76
2023/11/04 01:02:50;;;;;;;;;;;;;;;6.41;73.31;97738.00;1088287;47;1047;-77
2023/11/04 01:03:51;;;;;;;;;;;;;;;6.39;73.40;97750.63;1088236;47;1081;-78
2023/11/04 01:04:54;;;;;;;;;;;;;;;6.39;73.40;97743.50;1088410;54;1051;-77
2023/11/04 01:05:55;;;;;;;;;;;;;;;6.39;73.32;97732.88;1088304;47;974;-77
2023/11/04 01:06:58;;;;;;;;;;;;;;;6.39;73.19;97743.50;1088312;54;942;-76
2023/11/04 01:07:59;;;;;;;;;;;;;;;6.43;73.52;97740.47;1088272;48;1339;-78
2023/11/04 01:09:02;;;;;;;;;;;;;;;6.44;73.61;97737.66;1088390;54;992;-77
2023/11/04 01:10:04;;;;;;;;;;;;;;;6.45;73.17;97735.81;1088366;47;973;-76
2023/11/04 01:11:09;;;;;;;;;;;;;;;6.45;73.58;97738.47;1088434;54;940;-77
2023/11/04 01:12:10;;;;;;;;;;;;;;;6.45;73.42;97727.88;1088328;54;1854;-76
2023/11/04 01:13:13;;;;;;;;;;;;;;;6.42;73.52;97738.84;1088435;47;1171;-76
2023/11/04 01:14:14;;;;;;;;;;;;;;;6.44;73.55;97731.50;1088480;54;1001;-76
2023/11/04 01:15:17;;;;;;;;;;;;;;;6.51;73.11;97728.00;1088401;54;1008;-76
2023/11/04 01:16:18;;;;;;;;;;;;;;;6.53;73.14;97730.47;1088458;47;1004;-76
2023/11/04 01:17:21;;;;;;;;;;;;;;;6.51;73.07;97724.53;1088421;47;883;-76
2023/11/04 01:18:22;;;;;;;;;;;;;;;6.56;73.16;97733.59;1088633;46;1310;-77
2023/11/04 01:19:25;;;;;;;;;;;;;;;6.53;73.19;97731.31;1088369;47;933;-76
2023/11/04 01:20:26;;;;;;;;;;;;;;;6.51;73.11;97729.84;1088503;54;1008;-76
2023/11/04 01:21:29;;;;;;;;;;;;;;;6.59;72.81;97724.47;1088394;54;1052;-76
2023/11/04 01:22:30;;;;;;;;;;;;;;;6.60;72.79;97726.13;1088376;54;958;-76
2023/11/04 01:23:33;;;;;;;;;;;;;;;6.66;72.50;97725.41;1088431;54;926;-77
2023/11/04 01:24:34;;;;;;;;;;;;;;;6.70;72.34;97732.03;1088258;47;942;-78
2023/11/04 01:25:37;;;;;;;;;;;;;;;6.72;72.29;97729.19;1088404;54;935;-78
2023/11/04 01:26:41;;;;;;;;;;;;;;;6.75;72.16;97728.84;1088401;54;1011;-78
2023/11/04 01:27:44;;;;;;;;;;;;;;;6.79;72.22;97734.63;1088360;46;897;-78
2023/11/04 01:28:44;;;;;;;;;;;;;;;6.80;71.86;97731.78;1088316;47;983;-77
2023/11/04 01:29:49;;;;;;;;;;;;;;;6.87;71.71;97727.41;1088286;46;1384;-78
2023/11/04 01:30:50;;;;;;;;;;;;;;;6.92;71.82;97723.41;1088312;47;1017;-77
2023/11/04 01:31:53;;;;;;;;;;;;;;;6.94;71.44;97716.91;1088228;47;1845;-77
2023/11/04 01:32:54;;;;;;;;;;;;;;;6.92;71.45;97718.91;1088246;47;1001;-78
2023/11/04 01:33:57;;;;;;;;;;;;;;;6.93;71.09;97725.88;1088266;47;945;-77
2023/11/04 01:34:58;;;;;;;;;;;;;;;6.92;71.15;97724.22;1088358;54;961;-77
2023/11/04 01:36:01;;;;;;;;;;;;;;;6.98;70.88;97722.69;1088284;47;971;-77
2023/11/04 01:37:02;;;;;;;;;;;;;;;6.99;70.83;97716.38;1088289;47;959;-77
2023/11/04 01:38:05;;;;;;;;;;;;;;;6.98;70.55;97720.03;1088231;54;1256;-77
2023/11/04 01:39:06;;;;;;;;;;;;;;;7.05;70.41;97723.63;1088329;54;1030;-77
2023/11/04 01:40:13;;;;;;;;;;;;;;;7.11;70.08;97714.94;1088371;54;1025;-77
2023/11/04 01:41:14;;;;;;;;;;;;;;;7.17;69.72;97710.75;1088369;54;978;-77
2023/11/04 01:42:19;;;;;;;;;;;;;;;7.20;69.72;97704.25;1088188;54;1012;-77
2023/11/04 01:43:24;;;;;;;;;;;;;;;7.23;69.53;97712.69;1088303;46;871;-78
2023/11/04 01:44:28;;;;;;;;;;;;;;;7.24;69.11;97713.50;1088158;54;985;-77
2023/11/04 01:45:29;;;;;;;;;;;;;;;7.27;69.28;97711.31;1088341;54;970;-77
2023/11/04 01:46:33;;;;;;;;;;;;;;;7.34;69.05;97714.91;1088326;54;1054;-78
2023/11/04 01:47:33;;;;;;;;;;;;;;;7.29;68.60;97713.78;1088368;54;955;-77
2023/11/04 01:48:37;;;;;;;;;;;;;;;7.35;68.47;97710.41;1088313;54;1430;-77
2023/11/04 01:49:37;;;;;;;;;;;;;;;7.38;68.60;97711.84;1088315;54;986;-77
2023/11/04 01:50:40;;;;;;;;;;;;;;;7.34;68.78;97722.88;1088402;47;864;-77
2023/11/04 01:51:41;;;;;;;;;;;;;;;7.44;68.61;97711.16;1088329;54;1853;-78
2023/11/04 01:52:46;;;;;;;;;;;;;;;7.42;68.58;97719.28;1088057;54;964;-77
2023/11/04 01:53:47;;;;;;;;;;;;;;;7.44;68.20;97709.31;1088352;54;992;-78
2023/11/04 01:54:51;;;;;;;;;;;;;;;7.48;68.39;97710.59;1088244;47;998;-78
2023/11/04 01:55:51;;;;;;;;;;;;;;;7.43;68.26;97710.31;1088297;54;950;-78
2023/11/04 01:56:56;;;;;;;;;;;;;;;7.49;67.98;97711.41;1088410;54;1008;-78
2023/11/04 01:58:00;;;;;;;;;;;;;;;7.51;67.59;97706.75;1088418;46;1391;-77
2023/11/04 01:59:05;;;;;;;;;;;;;;;7.43;67.97;97701.53;1088478;46;957;-78
2023/11/04 02:00:08;;;;;;;;;;;;;;;7.46;67.99;97703.81;1088422;54;957;-78
2023/11/04 02:01:11;;;;;;;;;;;;;;;7.52;68.00;97703.09;1088342;47;966;-78
2023/11/04 02:02:14;;;;;;;;;;;;;;;7.55;67.59;97702.72;1088355;47;977;-78
2023/11/04 02:03:18;;;;;;;;;;;;;;;7.56;67.68;97704.34;1088453;54;1018;-77
2023/11/04 02:04:19;;;;;;;;;;;;;;;7.55;67.55;97699.22;1088732;54;919;-77
2023/11/04 02:05:23;;;;;;;;;;;;;;;7.54;67.30;97693.09;1088745;54;859;-78
2023/11/04 02:06:23;;;;;;;;;;;;;;;7.55;67.28;97702.72;1088313;47;1165;-78
2023/11/04 02:07:28;;;;;;;;;;;;;;;7.58;67.51;97690.91;1088371;47;1025;-78
2023/11/04 02:08:29;;;;;;;;;;;;;;;7.55;67.28;97689.44;1088391;54;1448;-77
2023/11/04 02:09:32;;;;;;;;;;;;;;;7.60;67.02;97683.56;1088347;54;1018;-79
2023/11/04 02:10:33;;;;;;;;;;;;;;;7.52;66.97;97684.47;1088357;46;1035;-77
2023/11/04 02:11:36;;;;;;;;;;;;;;;7.57;66.98;97692.72;1088301;47;880;-77
2023/11/04 02:12:38;;;;;;;;;;;;;;;7.62;67.10;97692.16;1088330;54;1844;-77
2023/11/04 02:13:44;;;;;;;;;;;;;;;7.59;67.26;97693.38;1088382;54;972;-78
2023/11/04 02:14:50;;;;;;;;;;;;;;;7.55;67.04;97686.78;1088276;54;1078;-78
2023/11/04 02:15:54;;;;;;;;;;;;;;;7.53;67.35;97680.81;1088319;47;900;-78
2023/11/04 02:16:54;;;;;;;;;;;;;;;7.55;67.04;97692.09;1088379;54;1009;-77
2023/11/04 02:17:55;;;;;;;;;;;;;;;7.54;66.97;97674.50;1088354;54;1432;-78
2023/11/04 02:18:58;;;;;;;;;;;;;;;7.51;67.18;97696.13;1088267;54;982;-78
2023/11/04 02:20:00;;;;;;;;;;;;;;;7.58;67.19;97689.06;1088345;54;952;-78
2023/11/04 02:21:07;;;;;;;;;;;;;;;7.55;67.21;97686.78;1088339;54;954;-78
2023/11/04 02:22:08;;;;;;;;;;;;;;;7.58;67.22;97680.25;1088257;54;1093;-77
2023/11/04 02:23:11;;;;;;;;;;;;;;;7.60;66.90;97681.72;1088160;47;982;-78
2023/11/04 02:24:12;;;;;;;;;;;;;;;7.57;66.99;97674.09;1088191;54;1013;-78
2023/11/04 02:25:18;;;;;;;;;;;;;;;7.61;67.01;97664.75;1088207;54;1119;-78
2023/11/04 02:26:18;;;;;;;;;;;;;;;7.63;67.16;97668.06;1088235;54;945;-77
2023/11/04 02:27:22;;;;;;;;;;;;;;;7.68;67.00;97669.34;1088256;54;1111;-78
2023/11/04 02:28:23;;;;;;;;;;;;;;;7.68;67.11;97667.53;1088168;46;1265;-78
2023/11/04 02:29:23;;;;;;;;;;;;;;;7.62;66.93;97663.75;1088208;47;1036;-77
2023/11/04 02:30:27;;;;;;;;;;;;;;;7.59;67.28;97660.66;1088215;47;898;-77
2023/11/04 02:31:28;;;;;;;;;;;;;;;7.53;67.59;97666.69;1088130;54;1079;-78
2023/11/04 02:32:32;;;;;;;;;;;;;;;7.53;67.26;97662.19;1088177;54;1852;-77
2023/11/04 02:33:33;;;;;;;;;;;;;;;7.55;67.13;97659.34;1088135;54;1027;-78
2023/11/04 02:34:36;;;;;;;;;;;;;;;7.54;67.18;97658.53;1088230;54;1046;-78
2023/11/04 02:35:37;;;;;;;;;;;;;;;7.46;67.41;97664.75;1087797;54;1025;-79
2023/11/04 02:36:43;;;;;;;;;;;;;;;7.55;67.15;97660.19;1086960;54;1173;-79
2023/11/04 02:37:44;;;;;;;;;;;;;;;7.56;66.95;97661.81;1086464;47;1411;-79
2023/11/04 02:38:47;;;;;;;;;;;;;;;7.53;66.99;97662.19;1086305;47;1104;-78
2023/11/04 02:39:48;;;;;;;;;;;;;;;7.39;67.49;97665.66;1086342;47;1072;-77
2023/11/04 02:40:49;;;;;;;;;;;;;;;7.41;67.39;97666.31;1086267;47;1114;-80
2023/11/04 02:41:52;;;;;;;;;;;;;;;7.47;67.26;97665.56;1087219;54;1068;-80
2023/11/04 02:42:53;;;;;;;;;;;;;;;7.52;67.34;97667.69;1087664;54;1063;-79
2023/11/04 02:43:56;;;;;;;;;;;;;;;7.55;66.84;97665.50;1087004;46;1133;-79
2023/11/04 02:44:57;;;;;;;;;;;;;;;7.57;67.22;97670.63;1086956;54;1096;-80
2023/11/04 02:46:00;;;;;;;;;;;;;;;7.55;67.21;97662.84;1087208;54;1300;-79
2023/11/04 02:47:01;;;;;;;;;;;;;;;7.60;66.90;97663.13;1087073;54;1097;-78
2023/11/04 02:48:04;;;;;;;;;;;;;;;7.56;66.89;97661.81;1087043;54;1457;-79
2023/11/04 02:49:05;;;;;;;;;;;;;;;7.57;67.11;97663.47;1087191;54;1162;-78
2023/11/04 02:50:09;;;;;;;;;;;;;;;7.49;67.35;97655.59;1086934;54;1029;-79
2023/11/04 02:51:10;;;;;;;;;;;;;;;7.55;67.16;97660.19;1086887;47;1062;-79
2023/11/04 02:52:16;;;;;;;;;;;;;;;7.58;67.09;97657.16;1087015;54;1861;-80
2023/11/04 02:53:16;;;;;;;;;;;;;;;7.56;67.14;97653.03;1087020;54;1162;-80
2023/11/04 02:54:19;;;;;;;;;;;;;;;7.57;67.35;97660.81;1087188;47;1158;-79
2023/11/04 02:55:20;;;;;;;;;;;;;;;7.57;66.95;97658.16;1087091;47;1126;-79
2023/11/04 02:56:23;;;;;;;;;;;;;;;7.61;67.10;97648.81;1086432;47;1003;-80
2023/11/04 02:57:24;;;;;;;;;;;;;;;7.64;66.87;97661.75;1086665;47;1075;-79
2023/11/04 02:58:27;;;;;;;;;;;;;;;7.61;66.79;97655.94;1086992;47;1428;-78
2023/11/04 02:59:30;;;;;;;;;;;;;;;7.61;67.19;97656.78;1086878;47;1095;-80
2023/11/04 03:00:33;;;;;;;;;;;;;;;7.60;66.63;97657.78;1086698;54;1138;-78
2023/11/04 03:01:34;;;;;;;;;;;;;;;7.57;67.06;97644.84;1087131;54;1199;-80
2023/11/04 03:02:38;;;;;;;;;;;;;;;7.59;67.07;97650.81;1087073;54;1104;-79
2023/11/04 03:03:39;;;;;;;;;;;;;;;7.52;67.16;97651.72;1086926;54;1135;-79
2023/11/04 03:04:42;;;;;;;;;;;;;;;7.49;67.23;97655.59;1087012;47;1085;-79
2023/11/04 03:05:43;;;;;;;;;;;;;;;7.54;67.32;97655.03;1087101;54;1123;-80
2023/11/04 03:06:46;;;;;;;;;;;;;;;7.58;67.29;97651.81;1086744;54;1016;-79
2023/11/04 03:07:49;;;;;;;;;;;;;;;7.57;67.06;97655.50;1086774;47;1259;-79
2023/11/04 03:08:52;;;;;;;;;;;;;;;7.57;67.06;97652.03;1087127;47;1035;-79
2023/11/04 03:09:53;;;;;;;;;;;;;;;7.56;67.06;97651.19;1086835;54;1072;-79
2023/11/04 03:10:54;;;;;;;;;;;;;;;7.52;67.04;97649.91;1086811;54;1495;-80
2023/11/04 03:11:57;;;;;;;;;;;;;;;7.58;67.09;97649.16;1087325;47;955;-79
2023/11/04 03:12:58;;;;;;;;;;;;;;;7.57;67.35;97644.03;1087218;47;1858;-79
2023/11/04 03:14:01;;;;;;;;;;;;;;;7.55;67.41;97652.22;1087198;47;1106;-80
2023/11/04 03:15:02;;;;;;;;;;;;;;;7.57;67.02;97647.50;1087819;47;1074;-81
2023/11/04 03:16:06;;;;;;;;;;;;;;;7.57;67.06;97649.38;1087882;46;1130;-79
2023/11/04 03:17:08;;;;;;;;;;;;;;;7.59;67.23;97648.16;1088085;54;1039;-80
2023/11/04 03:18:11;;;;;;;;;;;;;;;7.58;66.87;97640.38;1087943;47;1344;-80
2023/11/04 03:19:12;;;;;;;;;;;;;;;7.60;67.17;97641.03;1088130;54;1082;-80
2023/11/04 03:20:15;;;;;;;;;;;;;;;7.61;66.92;97643.50;1088144;54;1026;-80
2023/11/04 03:21:16;;;;;;;;;;;;;;;7.61;66.88;97638.16;1087995;47;1094;-81
2023/11/04 03:22:20;;;;;;;;;;;;;;;7.63;66.80;97632.66;1087932;47;1108;-80
2023/11/04 03:23:23;;;;;;;;;;;;;;;7.64;66.81;97635.16;1087941;54;1071;-80
2023/11/04 03:24:26;;;;;;;;;;;;;;;7.59;66.70;97626.09;1087803;47;1506;-80
2023/11/04 03:25:27;;;;;;;;;;;;;;;7.60;66.95;97636.53;1087866;46;1130;-81
2023/11/04 03:26:30;;;;;;;;;;;;;;;7.57;66.85;97631.56;1087989;47;991;-80
2023/11/04 03:27:31;;;;;;;;;;;;;;;7.57;66.88;97631.56;1087827;47;999;-80
2023/11/04 03:28:34;;;;;;;;;;;;;;;7.56;67.13;97629.09;1087721;47;1334;-80
2023/11/04 03:29:35;;;;;;;;;;;;;;;7.47;67.21;97625.69;1087868;47;1047;-80
2023/11/04 03:30:38;;;;;;;;;;;;;;;7.51;67.19;97631.50;1087698;54;1111;-80
2023/11/04 03:31:39;;;;;;;;;;;;;;;7.51;67.10;97629.66;1087921;54;1529;-80
2023/11/04 03:32:43;;;;;;;;;;;;;;;7.43;67.39;97630.56;1087909;54;1911;-80
2023/11/04 03:33:44;;;;;;;;;;;;;;;7.44;67.41;97631.41;1087534;47;1044;-81
2023/11/04 03:34:45;;;;;;;;;;;;;;;7.34;67.83;97629.84;1087726;47;985;-80
2023/11/04 03:35:48;;;;;;;;;;;;;;;7.32;67.71;97623.06;1087920;47;1107;-80
2023/11/04 03:36:48;;;;;;;;;;;;;;;7.36;67.50;97631.50;1087744;47;1072;-80
2023/11/04 03:37:52;;;;;;;;;;;;;;;7.39;67.39;97628.44;1087966;54;1456;-80
2023/11/04 03:38:55;;;;;;;;;;;;;;;7.38;67.62;97629.47;1087836;47;1098;-80
2023/11/04 03:39:57;;;;;;;;;;;;;;;7.40;67.45;97630.94;1087802;47;1087;-81
2023/11/04 03:41:00;;;;;;;;;;;;;;;7.30;67.70;97623.22;1087762;54;1087;-81
2023/11/04 03:42:01;;;;;;;;;;;;;;;7.29;67.87;97626.91;1087606;47;1384;-80
2023/11/04 03:43:04;;;;;;;;;;;;;;;7.27;67.97;97631.59;1087908;54;1088;-80
2023/11/04 03:44:05;;;;;;;;;;;;;;;7.29;67.68;97626.09;1087717;47;1159;-80
2023/11/04 03:45:09;;;;;;;;;;;;;;;7.31;67.68;97622.22;1087687;47;1153;-80
2023/11/04 03:46:09;;;;;;;;;;;;;;;7.32;67.87;97617.75;1088096;54;1079;-80
2023/11/04 03:47:14;;;;;;;;;;;;;;;7.34;67.59;97619.22;1088189;54;1075;-80
2023/11/04 03:48:14;;;;;;;;;;;;;;;7.31;67.71;97621.41;1088097;54;1203;-79
2023/11/04 03:49:18;;;;;;;;;;;;;;;7.33;67.90;97628.19;1088170;54;1111;-81
2023/11/04 03:50:18;;;;;;;;;;;;;;;7.34;67.63;97621.88;1088218;54;1079;-80
2023/11/04 03:51:22;;;;;;;;;;;;;;;7.34;67.58;97627.19;1088296;54;1017;-81
2023/11/04 03:52:24;;;;;;;;;;;;;;;7.34;67.66;97623.69;1088138;54;1849;-80
2023/11/04 03:53:27;;;;;;;;;;;;;;;7.31;67.67;97627.53;1088295;47;1087;-80
2023/11/04 03:54:33;;;;;;;;;;;;;;;7.36;67.81;97618.22;1088218;54;1047;-80
2023/11/04 03:55:37;;;;;;;;;;;;;;;7.28;68.03;97617.28;1088149;47;1008;-79
2023/11/04 03:56:38;;;;;;;;;;;;;;;7.27;67.96;97634.25;1088140;54;1071;-80
2023/11/04 03:57:41;;;;;;;;;;;;;;;7.33;67.66;97622.03;1088075;47;1059;-80
2023/11/04 03:58:41;;;;;;;;;;;;;;;7.32;67.82;97625.72;1087833;54;1273;-80
2023/11/04 03:59:45;;;;;;;;;;;;;;;7.37;67.52;97627.84;1088242;47;908;-81
2023/11/04 04:00:46;;;;;;;;;;;;;;;7.36;67.78;97619.03;1088278;46;860;-80
2023/11/04 04:01:46;;;;;;;;;;;;;;;7.36;67.57;97623.53;1088204;47;953;-80
2023/11/04 04:02:50;;;;;;;;;;;;;;;7.39;67.35;97618.66;1088339;54;971;-81
2023/11/04 04:03:51;;;;;;;;;;;;;;;7.38;67.53;97627.63;1088330;47;940;-80
2023/11/04 04:04:54;;;;;;;;;;;;;;;7.37;67.53;97617.19;1088184;47;1040;-80
2023/11/04 04:05:55;;;;;;;;;;;;;;;7.41;67.25;97626.44;1088222;54;1004;-80
2023/11/04 04:06:58;;;;;;;;;;;;;;;7.44;67.43;97615.44;1088288;54;974;-80
2023/11/04 04:07:59;;;;;;;;;;;;;;;7.42;67.18;97617.47;1088266;54;1269;-81
2023/11/04 04:08:59;;;;;;;;;;;;;;;7.46;67.39;97614.25;1088549;54;942;-81
2023/11/04 04:10:06;;;;;;;;;;;;;;;7.46;67.18;97624.06;1088566;54;1008;-81
2023/11/04 04:11:06;;;;;;;;;;;;;;;7.46;67.35;97619.56;1088538;47;1001;-81
2023/11/04 04:12:12;;;;;;;;;;;;;;;7.49;67.26;97619.22;1088537;54;931;-81
2023/11/04 04:13:15;;;;;;;;;;;;;;;7.53;67.19;97616.16;1088492;51;1848;-82
2023/11/04 04:14:18;;;;;;;;;;;;;;;7.52;67.08;97612.69;1088446;47;976;-80
2023/11/04 04:15:19;;;;;;;;;;;;;;;7.51;67.24;97608.38;1088335;46;1009;-81
2023/11/04 04:16:22;;;;;;;;;;;;;;;7.56;67.31;97608.63;1088218;54;949;-80
2023/11/04 04:17:25;;;;;;;;;;;;;;;7.54;66.95;97597.38;1088226;54;908;-80
2023/11/04 04:18:26;;;;;;;;;;;;;;;7.58;66.87;97601.31;1088115;47;1234;-80
2023/11/04 04:19:29;;;;;;;;;;;;;;;7.56;67.27;97595.34;1088108;54;981;-81
2023/11/04 04:20:30;;;;;;;;;;;;;;;7.58;66.74;97593.34;1088272;54;942;-80
2023/11/04 04:21:30;;;;;;;;;;;;;;;7.62;66.83;97591.13;1088289;54;990;-81
2023/11/04 04:22:34;;;;;;;;;;;;;;;7.65;66.67;97582.78;1088169;47;1008;-80
2023/11/04 04:23:35;;;;;;;;;;;;;;;7.63;67.08;97582.97;1088178;47;1015;-81
2023/11/04 04:24:40;;;;;;;;;;;;;;;7.68;66.85;97581.56;1088246;47;958;-81
2023/11/04 04:25:43;;;;;;;;;;;;;;;7.70;66.62;97583.03;1088217;54;896;-81
2023/11/04 04:26:50;;;;;;;;;;;;;;;7.69;66.60;97583.22;1088147;47;917;-80
2023/11/04 04:27:50;;;;;;;;;;;;;;;7.62;66.67;97581.31;1088161;54;1442;-81
2023/11/04 04:28:53;;;;;;;;;;;;;;;7.62;66.61;97586.66;1088155;47;1037;-80
2023/11/04 04:29:54;;;;;;;;;;;;;;;7.55;67.01;97580.44;1088114;47;995;-81
2023/11/04 04:30:55;;;;;;;;;;;;;;;7.48;67.15;97579.50;1088207;47;943;-81
2023/11/04 04:31:58;;;;;;;;;;;;;;;7.49;66.99;97581.16;1088084;47;911;-80
2023/11/04 04:32:59;;;;;;;;;;;;;;;7.55;67.01;97588.41;1088168;54;1845;-81
2023/11/04 04:34:02;;;;;;;;;;;;;;;7.52;66.96;97585.25;1088151;54;1207;-81
2023/11/04 04:35:03;;;;;;;;;;;;;;;7.52;66.90;97582.59;1088238;54;962;-80
2023/11/04 04:36:04;;;;;;;;;;;;;;;7.51;67.03;97580.97;1088403;54;979;-80
2023/11/04 04:37:08;;;;;;;;;;;;;;;7.49;67.06;97582.00;1088659;54;969;-81
2023/11/04 04:38:08;;;;;;;;;;;;;;;7.49;67.12;97579.34;1088600;54;1335;-80
2023/11/04 04:39:11;;;;;;;;;;;;;;;7.53;66.88;97585.09;1088665;54;896;-80
2023/11/04 04:40:12;;;;;;;;;;;;;;;7.54;66.93;97586.75;1088493;54;947;-80
2023/11/04 04:41:18;;;;;;;;;;;;;;;7.60;66.99;97578.03;1088466;47;1053;-80
2023/11/04 04:42:19;;;;;;;;;;;;;;;7.67;66.90;97571.94;1088515;47;993;-80
2023/11/04 04:43:22;;;;;;;;;;;;;;;7.67;66.75;97577.25;1088452;47;827;-79
2023/11/04 04:44:22;;;;;;;;;;;;;;;7.57;66.77;97570.41;1088562;54;1005;-80
2023/11/04 04:45:26;;;;;;;;;;;;;;;7.62;66.67;97576.00;1088333;47;1072;-79
2023/11/04 04:46:29;;;;;;;;;;;;;;;7.58;66.65;97569.41;1088649;54;1001;-80
2023/11/04 04:47:33;;;;;;;;;;;;;;;7.64;66.81;97573.16;1088608;46;921;-80
2023/11/04 04:48:34;;;;;;;;;;;;;;;7.62;66.75;97569.84;1088548;46;1436;-80
2023/11/04 04:49:37;;;;;;;;;;;;;;;7.62;66.88;97575.16;1088609;54;985;-80
2023/11/04 04:50:38;;;;;;;;;;;;;;;7.65;66.61;97564.97;1088529;46;984;-80
2023/11/04 04:51:41;;;;;;;;;;;;;;;7.60;66.51;97564.72;1088460;47;1032;-80
2023/11/04 04:52:42;;;;;;;;;;;;;;;7.63;66.85;97559.03;1088514;54;975;-79
2023/11/04 04:53:45;;;;;;;;;;;;;;;7.62;66.65;97564.53;1088538;46;1850;-81
2023/11/04 04:54:46;;;;;;;;;;;;;;;7.66;66.53;97560.50;1088424;47;994;-80
2023/11/04 04:55:47;;;;;;;;;;;;;;;7.67;66.72;97563.97;1088536;54;999;-81
2023/11/04 04:56:53;;;;;;;;;;;;;;;7.61;66.47;97563.72;1088371;54;1013;-79
2023/11/04 04:57:55;;;;;;;;;;;;;;;7.68;66.28;97558.50;1088422;46;1163;-80
2023/11/04 04:58:58;;;;;;;;;;;;;;;7.72;66.21;97565.06;1088508;54;983;-79
2023/11/04 04:59:59;;;;;;;;;;;;;;;7.77;66.34;97556.53;1088528;54;917;-80
2023/11/04 05:01:02;;;;;;;;;;;;;;;7.76;66.13;97561.03;1088450;54;953;-80
2023/11/04 05:02:03;;;;;;;;;;;;;;;7.72;66.27;97549.09;1088502;46;939;-80
2023/11/04 05:03:06;;;;;;;;;;;;;;;7.72;66.41;97548.28;1088541;54;1031;-81
2023/11/04 05:04:07;;;;;;;;;;;;;;;7.61;66.63;97553.09;1088456;54;999;-81
2023/11/04 05:05:11;;;;;;;;;;;;;;;7.60;66.25;97548.78;1088580;54;922;-82
2023/11/04 05:06:12;;;;;;;;;;;;;;;7.61;66.17;97552.25;1088415;54;937;-80
2023/11/04 05:07:15;;;;;;;;;;;;;;;7.61;66.21;97542.44;1088365;54;1149;-82
2023/11/04 05:08:16;;;;;;;;;;;;;;;7.64;66.22;97544.75;1088360;54;1404;-80
2023/11/04 05:09:21;;;;;;;;;;;;;;;7.59;66.17;97547.13;1088509;54;951;-80
2023/11/04 05:10:22;;;;;;;;;;;;;;;7.56;66.36;97541.34;1088493;54;985;-79
2023/11/04 05:11:26;;;;;;;;;;;;;;;7.53;66.29;97544.38;1088579;54;1068;-82
2023/11/04 05:12:29;;;;;;;;;;;;;;;7.51;66.45;97541.91;1088563;46;955;-80
2023/11/04 05:13:32;;;;;;;;;;;;;;;7.50;66.31;97545.59;1088514;54;1850;-79
2023/11/04 05:14:33;;;;;;;;;;;;;;;7.53;66.32;97539.91;1088639;46;952;-79
2023/11/04 05:15:34;;;;;;;;;;;;;;;7.50;66.26;97545.59;1088583;54;1053;-80
2023/11/04 05:16:39;;;;;;;;;;;;;;;7.47;66.39;97541.47;1088616;54;1005;-81
2023/11/04 05:17:40;;;;;;;;;;;;;;;7.47;66.09;97538.81;1088561;47;907;-80
2023/11/04 05:18:40;;;;;;;;;;;;;;;7.39;66.54;97543.41;1088531;54;1359;-81
2023/11/04 05:19:44;;;;;;;;;;;;;;;7.31;66.47;97542.50;1088569;54;988;-80
2023/11/04 05:20:44;;;;;;;;;;;;;;;7.33;66.75;97537.81;1088574;47;988;-80
2023/11/04 05:21:48;;;;;;;;;;;;;;;7.34;66.24;97531.50;1088556;46;972;-82
2023/11/04 05:22:49;;;;;;;;;;;;;;;7.37;66.50;97535.63;1088550;54;941;-80
2023/11/04 05:23:52;;;;;;;;;;;;;;;7.34;66.59;97536.81;1088566;47;1138;-81
2023/11/04 05:24:52;;;;;;;;;;;;;;;7.33;66.32;97534.31;1088433;47;1073;-78
2023/11/04 05:25:53;;;;;;;;;;;;;;;7.34;66.21;97531.50;1088588;46;876;-80
2023/11/04 05:26:58;;;;;;;;;;;;;;;7.40;66.19;97529.09;1088582;54;977;-80
2023/11/04 05:28:02;;;;;;;;;;;;;;;7.43;66.25;97534.06;1088514;47;1327;-80
2023/11/04 05:29:05;;;;;;;;;;;;;;;7.41;65.96;97526.28;1088470;54;1010;-80
2023/11/04 05:30:06;;;;;;;;;;;;;;;7.41;66.07;97530.75;1087989;47;1125;-80
2023/11/04 05:31:10;;;;;;;;;;;;;;;7.39;65.89;97532.75;1088019;54;1012;-79
2023/11/04 05:32:11;;;;;;;;;;;;;;;7.37;66.30;97529.50;1087978;47;1004;-79
2023/11/04 05:33:16;;;;;;;;;;;;;;;7.37;66.08;97529.50;1088034;54;1860;-80
2023/11/04 05:34:17;;;;;;;;;;;;;;;7.31;66.21;97541.69;1087809;47;1062;-79
2023/11/04 05:35:20;;;;;;;;;;;;;;;7.25;66.49;97534.44;1088327;54;1343;-79